M I D A S
Marine Information and Data Acquisition System
Tripno 2321 of the Zeeleeuw from 2012-05-31 04:54:38 to 2012-05-31 15:54:25
Back to CruiseResearch ActivitiesStationsMapUnderway DataData graphs

EquipmentUnitsComment
TimeDGPSUTC
LatitudeDGPSDM.mWGS84
LongitudeDGPSDM.mWGS84
HeadingGyrodeg 
SOGDGPSknotsSpeed over ground
COGDGPSdegCourse over ground
DepthEcho soundermeters200 kHz
Missing or incorrect values are displayed as -999
Navigation data collected by the RV Zeeleeuw from 2012-05-31 04:37:31 to 2012-05-31 16:00:00
                                                                                    Next 1000 lines
Time Latitude Longitude Heading SOG COG Depth
2012-05-31 04:37:41 51°13.635 2°56.013 104.5 0.7 279 -999
2012-05-31 04:37:46 51°13.635 2°56.01 104.5 1.1 282 -999
2012-05-31 04:37:51 51°13.635 2°56.007 104.7 1.5 285 -999
2012-05-31 04:37:55 51°13.636 2°56.003 105.4 2 284 -999
2012-05-31 04:38:00 51°13.637 2°55.998 106.5 2.5 288 -999
2012-05-31 04:38:06 51°13.638 2°55.991 107.1 2.9 287 -999
2012-05-31 04:38:11 51°13.64 2°55.984 107.4 3.3 289 -999
2012-05-31 04:38:15 51°13.641 2°55.978 107.4 3.6 288 -999
2012-05-31 04:38:21 51°13.643 2°55.969 107.4 3.5 288 -999
2012-05-31 04:38:26 51°13.644 2°55.961 107.3 3.5 287 -999
2012-05-31 04:38:31 51°13.646 2°55.953 107.1 3.7 288 -999
2012-05-31 04:38:35 51°13.647 2°55.947 107 3.7 287 -999
2012-05-31 04:38:41 51°13.649 2°55.938 107 3.7 287 -999
2012-05-31 04:38:46 51°13.65 2°55.93 107.4 3.7 286 -999
2012-05-31 04:38:51 51°13.652 2°55.922 107.8 3.7 287 -999
2012-05-31 04:38:55 51°13.653 2°55.915 108.3 3.7 287 -999
2012-05-31 04:39:01 51°13.655 2°55.906 109.2 3.7 288 -999
2012-05-31 04:39:06 51°13.656 2°55.898 110.4 3.7 288 -999
2012-05-31 04:39:11 51°13.658 2°55.89 111.5 3.7 290 -999
2012-05-31 04:39:15 51°13.659 2°55.884 112.8 3.7 290 -999
2012-05-31 04:39:21 51°13.662 2°55.875 114.3 3.8 293 -999
2012-05-31 04:39:26 51°13.664 2°55.867 116 3.9 293 -999
2012-05-31 04:39:31 51°13.666 2°55.86 117.3 4 295 -999
2012-05-31 04:39:35 51°13.668 2°55.853 118.5 4.1 296 -999
2012-05-31 04:39:41 51°13.672 2°55.843 119.8 4.2 298 -999
2012-05-31 04:39:46 51°13.674 2°55.834 121.3 4.3 299 -999
2012-05-31 04:39:51 51°13.677 2°55.826 122.7 4.4 301 -999
2012-05-31 04:39:55 51°13.68 2°55.819 124.1 4.5 302 -999
2012-05-31 04:40:01 51°13.684 2°55.809 125.6 4.6 304 -999
2012-05-31 04:40:06 51°13.688 2°55.801 127.1 4.6 305 -999
2012-05-31 04:40:11 51°13.692 2°55.793 128.6 4.7 307 -999
2012-05-31 04:40:15 51°13.695 2°55.786 130 4.8 308 -999
2012-05-31 04:40:21 51°13.7 2°55.776 131.5 4.8 310 -999
2012-05-31 04:40:26 51°13.705 2°55.768 132.9 4.9 311 -999
2012-05-31 04:40:31 51°13.71 2°55.76 134.2 4.9 313 -999
2012-05-31 04:40:35 51°13.713 2°55.754 135.4 4.9 314 -999
2012-05-31 04:40:41 51°13.719 2°55.744 136.5 5 315 -999
2012-05-31 04:40:46 51°13.724 2°55.737 137.7 5 316 -999
2012-05-31 04:40:51 51°13.73 2°55.729 138.8 5 317 -999
2012-05-31 04:40:55 51°13.734 2°55.723 140 5.1 318 -999
2012-05-31 04:41:01 51°13.74 2°55.715 141 5.1 319 -999
2012-05-31 04:41:06 51°13.745 2°55.708 142 5.1 320 -999
2012-05-31 04:41:11 51°13.751 2°55.701 142.9 5.1 321 -999
2012-05-31 04:41:15 51°13.755 2°55.695 143.8 5.1 322 -999
2012-05-31 04:41:21 51°13.762 2°55.686 144.5 5.1 323 -999
2012-05-31 04:41:26 51°13.768 2°55.68 145.5 5.1 324 -999
2012-05-31 04:41:31 51°13.774 2°55.673 146.2 5.2 325 -999
2012-05-31 04:41:35 51°13.778 2°55.668 146.9 5.2 325 -999
2012-05-31 04:41:41 51°13.786 2°55.661 147.5 5.1 326 -999
2012-05-31 04:41:46 51°13.792 2°55.655 148.5 5.1 327 -999
2012-05-31 04:41:51 51°13.798 2°55.649 149.6 5 328 -999
2012-05-31 04:41:56 51°13.803 2°55.644 150.9 5 329 -999
2012-05-31 04:42:01 51°13.809 2°55.638 152 5 330 -999
2012-05-31 04:42:06 51°13.815 2°55.633 153.3 4.9 331 -999
2012-05-31 04:42:11 51°13.821 2°55.629 154.8 4.8 333 -999
2012-05-31 04:42:15 51°13.826 2°55.625 156.5 4.7 333 -999
2012-05-31 04:42:21 51°13.833 2°55.62 158.3 4.6 335 -999
2012-05-31 04:42:26 51°13.839 2°55.616 160.1 4.6 337 -999
2012-05-31 04:42:31 51°13.845 2°55.612 162 4.5 339 -999
2012-05-31 04:42:35 51°13.849 2°55.61 164.1 4.4 340 -999
2012-05-31 04:42:41 51°13.856 2°55.606 166.3 4.3 343 -999
2012-05-31 04:42:45 51°13.86 2°55.604 168.5 4.3 345 -999
2012-05-31 04:42:51 51°13.867 2°55.601 171 4.2 347 -999
2012-05-31 04:42:55 51°13.872 2°55.6 173.4 4.1 349 -999
2012-05-31 04:43:01 51°13.878 2°55.599 175.7 4.1 352 -999
2012-05-31 04:43:06 51°13.884 2°55.598 178.2 4 354 -999
2012-05-31 04:43:11 51°13.89 2°55.598 180.6 4 357 -999
2012-05-31 04:43:15 51°13.894 2°55.598 182.9 3.9 359 -999
2012-05-31 04:43:21 51°13.901 2°55.597 184.6 3.9 1 -999
2012-05-31 04:43:26 51°13.907 2°55.597 187.3 3.8 3 -999
2012-05-31 04:43:31 51°13.912 2°55.598 189.5 3.8 6 -999
2012-05-31 04:43:36 51°13.917 2°55.6 191.7 3.8 8 -999
2012-05-31 04:43:41 51°13.922 2°55.602 193.8 3.7 10 -999
2012-05-31 04:43:46 51°13.926 2°55.603 195.8 3.7 12 -999
2012-05-31 04:43:51 51°13.931 2°55.605 197.9 3.7 13 -999
2012-05-31 04:43:56 51°13.936 2°55.607 200 3.5 16 -999
2012-05-31 04:44:01 51°13.94 2°55.61 202 3.3 17 -999
2012-05-31 04:44:06 51°13.945 2°55.612 203.9 3.2 19 -999
2012-05-31 04:44:11 51°13.949 2°55.614 205.6 3.1 20 -999
2012-05-31 04:44:15 51°13.952 2°55.616 207.4 3 22 -999
2012-05-31 04:44:21 51°13.956 2°55.62 209.1 3 24 -999
2012-05-31 04:44:26 51°13.96 2°55.623 210.9 3 26 -999
2012-05-31 04:44:31 51°13.964 2°55.626 212.9 3 27 -999
2012-05-31 04:44:35 51°13.966 2°55.628 214.9 2.9 30 -999
2012-05-31 04:44:40 51°13.969 2°55.631 217 2.8 29 -999
2012-05-31 04:44:46 51°13.973 2°55.635 218.8 2.6 32 -999
2012-05-31 04:44:51 51°13.976 2°55.637 220.7 2.2 33 -999
2012-05-31 04:44:55 51°13.977 2°55.639 222.9 1.9 34 -999
2012-05-31 04:45:01 51°13.979 2°55.642 225.1 1.5 33 -999
2012-05-31 04:45:06 51°13.98 2°55.643 227.6 1 29 -999
2012-05-31 04:45:11 51°13.981 2°55.643 230.7 0.6 23 -999
2012-05-31 04:45:15 51°13.981 2°55.643 234.4 0.3 350 -999
2012-05-31 04:45:21 51°13.981 2°55.642 238.6 0.3 297 -999
2012-05-31 04:45:26 51°13.981 2°55.64 243.3 0.6 275 -999
2012-05-31 04:45:31 51°13.981 2°55.638 248.5 1 268 -999
2012-05-31 04:45:35 51°13.981 2°55.636 254.5 1.3 269 -999
2012-05-31 04:45:41 51°13.981 2°55.632 260.8 1.6 272 -999
2012-05-31 04:45:46 51°13.982 2°55.627 267.1 1.9 276 -999
2012-05-31 04:45:51 51°13.982 2°55.623 273.5 2.1 281 -999
2012-05-31 04:45:55 51°13.983 2°55.619 280 2.3 287 -999
2012-05-31 04:46:01 51°13.985 2°55.612 286.4 2.6 290 -999
2012-05-31 04:46:06 51°13.986 2°55.606 292.7 2.9 298 -999
2012-05-31 04:46:11 51°13.989 2°55.6 298.2 3.2 300 -999
2012-05-31 04:46:15 51°13.991 2°55.595 303.2 3.4 304 -999
2012-05-31 04:46:21 51°13.995 2°55.587 307.8 3.8 309 -999
2012-05-31 04:46:26 51°13.999 2°55.581 311.8 4.2 313 -999
2012-05-31 04:46:31 51°14.004 2°55.573 315.6 4.6 316 -999
2012-05-31 04:46:35 51°14.008 2°55.568 319.2 4.9 319 -999
2012-05-31 04:46:41 51°14.015 2°55.56 322 5.3 321 -999
2012-05-31 04:46:46 51°14.022 2°55.552 323.2 5.6 322 -999
2012-05-31 04:46:51 51°14.028 2°55.544 323.8 5.8 322 -999
2012-05-31 04:46:55 51°14.033 2°55.537 324.5 6.1 324 -999
2012-05-31 04:47:01 51°14.042 2°55.527 325.4 6.3 324 11
2012-05-31 04:47:06 51°14.049 2°55.519 326.4 6.5 325 -999
2012-05-31 04:47:11 51°14.057 2°55.511 327.5 6.7 326 -999
2012-05-31 04:47:15 51°14.063 2°55.504 327.7 6.8 326 -999
2012-05-31 04:47:21 51°14.073 2°55.494 327.8 6.9 326 -999
2012-05-31 04:47:26 51°14.081 2°55.486 328.5 7 326 -999
2012-05-31 04:47:31 51°14.089 2°55.477 329.2 7.1 328 -999
2012-05-31 04:47:35 51°14.096 2°55.47 329.4 7.2 326 -999
2012-05-31 04:47:41 51°14.106 2°55.46 329.4 7.2 328 -999
2012-05-31 04:47:46 51°14.114 2°55.451 329.8 7.3 327 -999
2012-05-31 04:47:51 51°14.123 2°55.443 329.8 7.4 328 -999
2012-05-31 04:47:55 51°14.13 2°55.435 329.8 7.5 327 -999
2012-05-31 04:48:01 51°14.141 2°55.424 330 7.7 328 -999
2012-05-31 04:48:06 51°14.15 2°55.415 330 7.9 327 -999
2012-05-31 04:48:11 51°14.16 2°55.406 329.5 8 328 -999
2012-05-31 04:48:16 51°14.169 2°55.396 329.4 8.2 328 -999
2012-05-31 04:48:21 51°14.179 2°55.386 329.6 8.3 328 -999
2012-05-31 04:48:26 51°14.189 2°55.377 330.4 8.4 329 -999
2012-05-31 04:48:31 51°14.199 2°55.368 331.2 8.5 330 -999
2012-05-31 04:48:35 51°14.207 2°55.36 331.7 8.5 329 -999
2012-05-31 04:48:41 51°14.219 2°55.349 332.3 8.6 331 -999
2012-05-31 04:48:46 51°14.23 2°55.339 332.6 8.6 330 -999
2012-05-31 04:48:51 51°14.241 2°55.33 332.5 8.7 330 -999
2012-05-31 04:48:55 51°14.249 2°55.322 332.2 8.7 330 -999
2012-05-31 04:49:01 51°14.262 2°55.311 332 8.7 330 -999
2012-05-31 04:49:06 51°14.272 2°55.301 331.9 8.7 330 -999
2012-05-31 04:49:11 51°14.282 2°55.29 331.4 8.8 329 -999
2012-05-31 04:49:15 51°14.291 2°55.282 331 8.9 329 -999
2012-05-31 04:49:21 51°14.303 2°55.27 331 8.9 329 -999
2012-05-31 04:49:26 51°14.314 2°55.26 331.2 8.9 329 -999
2012-05-31 04:49:31 51°14.325 2°55.25 331.3 9 330 -999
2012-05-31 04:49:35 51°14.334 2°55.242 330.9 9.1 329 -999
2012-05-31 04:49:41 51°14.347 2°55.23 330.9 9.2 330 -999
2012-05-31 04:49:46 51°14.358 2°55.219 331.1 9.2 330 -999
2012-05-31 04:49:51 51°14.369 2°55.209 331.6 9.3 330 -999
2012-05-31 04:49:55 51°14.378 2°55.201 331.7 9.4 330 -999
2012-05-31 04:50:01 51°14.391 2°55.188 331.5 9.5 330 -999
2012-05-31 04:50:06 51°14.403 2°55.178 332.2 9.6 332 10.3
2012-05-31 04:50:11 51°14.415 2°55.168 333.2 9.8 331 -999
2012-05-31 04:50:15 51°14.425 2°55.16 333.4 9.9 332 -999
2012-05-31 04:50:21 51°14.439 2°55.147 333.6 10 332 -999
2012-05-31 04:50:26 51°14.451 2°55.136 333.4 10 331 -999
2012-05-31 04:50:31 51°14.463 2°55.126 333.2 10 331 -999
2012-05-31 04:50:36 51°14.476 2°55.115 333.2 10.1 332 -999
2012-05-31 04:50:40 51°14.486 2°55.107 333.7 10.2 331 10.7
2012-05-31 04:50:46 51°14.501 2°55.094 333.7 10.1 331 -999
2012-05-31 04:50:51 51°14.513 2°55.082 332.5 10.1 330 10.5
2012-05-31 04:50:55 51°14.522 2°55.073 332.2 10.1 329 10.5
2012-05-31 04:51:00 51°14.534 2°55.061 331.2 10.1 326 10.6
2012-05-31 04:51:05 51°14.545 2°55.047 329.1 10.2 323 11
2012-05-31 04:51:10 51°14.556 2°55.032 326.3 10.4 322 11.4
2012-05-31 04:51:15 51°14.568 2°55.018 325.1 10.5 322 11.8
2012-05-31 04:51:20 51°14.579 2°55.004 325 10.6 322 11.8
2012-05-31 04:51:25 51°14.591 2°54.99 325.8 10.8 324 11.9
2012-05-31 04:51:30 51°14.604 2°54.976 327.1 11 326 11.9
2012-05-31 04:51:35 51°14.617 2°54.961 328.5 11.1 324 11.8
2012-05-31 04:51:39 51°14.627 2°54.949 328.8 11.3 324 11.6
2012-05-31 04:51:45 51°14.641 2°54.931 327.2 11.4 322 11.9
2012-05-31 04:51:50 51°14.654 2°54.916 325.9 11.4 323 11.7
2012-05-31 04:51:55 51°14.667 2°54.9 326 11.6 323 11.7
2012-05-31 04:51:59 51°14.678 2°54.889 326.9 11.6 325 11.7
2012-05-31 04:52:04 51°14.69 2°54.874 328 11.6 323 11.5
2012-05-31 04:52:10 51°14.706 2°54.855 327.4 11.7 322 11.5
2012-05-31 04:52:14 51°14.716 2°54.842 326.1 11.7 321 11.3
2012-05-31 04:52:19 51°14.728 2°54.825 325 11.7 321 11.2
2012-05-31 04:52:24 51°14.741 2°54.809 325.2 11.8 322 11.3
2012-05-31 04:52:29 51°14.754 2°54.793 325.9 11.9 322 11.5
2012-05-31 04:52:35 51°14.77 2°54.774 325.9 11.7 322 -999
2012-05-31 04:52:41 51°14.785 2°54.756 325.1 11.7 324 -999
2012-05-31 04:52:46 51°14.799 2°54.741 327 11.7 324 -999
2012-05-31 04:52:51 51°14.812 2°54.726 328 11.7 325 -999
2012-05-31 04:52:56 51°14.825 2°54.711 328 11.7 324 -999
2012-05-31 04:53:01 51°14.838 2°54.695 327.4 11.7 324 -999
2012-05-31 04:53:06 51°14.851 2°54.68 326.7 11.7 323 -999
2012-05-31 04:53:11 51°14.864 2°54.666 327.3 11.7 325 -999
2012-05-31 04:53:15 51°14.875 2°54.654 328.2 11.6 326 -999
2012-05-31 04:53:21 51°14.891 2°54.638 330.4 11.6 328 -999
2012-05-31 04:53:26 51°14.905 2°54.624 331.5 11.7 328 -999
2012-05-31 04:53:31 51°14.919 2°54.609 330.6 11.7 326 -999
2012-05-31 04:53:35 51°14.929 2°54.597 329.5 11.7 324 -999
2012-05-31 04:53:41 51°14.945 2°54.58 328.6 11.7 326 -999
2012-05-31 04:53:46 51°14.958 2°54.566 329.6 11.6 326 -999
2012-05-31 04:53:51 51°14.971 2°54.551 329.5 11.5 325 -999
2012-05-31 04:53:55 51°14.981 2°54.538 328.3 11.6 323 -999
2012-05-31 04:54:01 51°14.996 2°54.519 326.6 11.5 322 -999
2012-05-31 04:54:06 51°15.008 2°54.503 325.2 11.5 319 -999
2012-05-31 04:54:11 51°15.02 2°54.486 322.8 11.5 318 -999
2012-05-31 04:54:15 51°15.03 2°54.472 322.4 11.6 319 -999
2012-05-31 04:54:21 51°15.045 2°54.452 322.9 11.6 319 -999
2012-05-31 04:54:26 51°15.057 2°54.436 324.1 11.7 321 -999
2012-05-31 04:54:31 51°15.07 2°54.421 326.7 11.6 324 -999
2012-05-31 04:54:35 51°15.081 2°54.409 328.1 11.6 324 -999
2012-05-31 04:54:41 51°15.097 2°54.391 328.9 11.7 324 -999
2012-05-31 04:54:46 51°15.11 2°54.376 328.9 11.7 323 -999
2012-05-31 04:54:51 51°15.123 2°54.36 328 11.7 323 -999
2012-05-31 04:54:56 51°15.135 2°54.345 327.2 11.7 322 -999
2012-05-31 04:55:01 51°15.148 2°54.33 327.3 11.6 324 -999
2012-05-31 04:55:06 51°15.162 2°54.315 328.1 11.6 325 -999
2012-05-31 04:55:11 51°15.175 2°54.3 329 11.6 324 -999
2012-05-31 04:55:15 51°15.185 2°54.288 329 11.6 324 -999
2012-05-31 04:55:21 51°15.201 2°54.269 328 11.6 324 -999
2012-05-31 04:55:26 51°15.214 2°54.255 327.8 11.6 325 -999
2012-05-31 04:55:31 51°15.227 2°54.24 328.4 11.6 325 -999
2012-05-31 04:55:35 51°15.237 2°54.228 328.4 11.6 324 -999
2012-05-31 04:55:41 51°15.253 2°54.209 327.4 11.7 323 -999
2012-05-31 04:55:46 51°15.266 2°54.194 327.8 11.6 324 -999
2012-05-31 04:55:51 51°15.279 2°54.179 328.4 11.7 324 -999
2012-05-31 04:55:55 51°15.29 2°54.167 327.4 11.7 323 -999
2012-05-31 04:56:01 51°15.305 2°54.149 327.4 11.7 324 -999
2012-05-31 04:56:06 51°15.318 2°54.133 327.9 11.7 323 -999
2012-05-31 04:56:11 51°15.331 2°54.118 327.5 11.7 324 -999
2012-05-31 04:56:15 51°15.342 2°54.106 327.8 11.7 325 -999
2012-05-31 04:56:21 51°15.358 2°54.088 328.7 11.8 325 -999
2012-05-31 04:56:26 51°15.371 2°54.073 329.5 11.7 326 -999
2012-05-31 04:56:31 51°15.385 2°54.059 329.4 11.6 325 -999
2012-05-31 04:56:35 51°15.395 2°54.046 328.9 11.6 324 11.6
2012-05-31 04:56:40 51°15.408 2°54.031 328.3 11.7 323 11.3
2012-05-31 04:56:45 51°15.421 2°54.015 327.2 11.7 321 11.5
2012-05-31 04:56:50 51°15.434 2°54 326 11.6 323 11.5
2012-05-31 04:56:55 51°15.447 2°53.985 326.3 11.6 324 11.8
2012-05-31 04:57:00 51°15.459 2°53.968 327.4 11.6 322 11.4
2012-05-31 04:57:05 51°15.471 2°53.952 326.9 11.6 319 11.5
2012-05-31 04:57:11 51°15.486 2°53.932 324 11.7 320 -999
2012-05-31 04:57:15 51°15.496 2°53.919 323.4 11.7 320 -999
2012-05-31 04:57:21 51°15.511 2°53.899 324.4 11.6 321 -999
2012-05-31 04:57:26 51°15.524 2°53.883 325 11.7 322 -999
2012-05-31 04:57:31 51°15.537 2°53.868 326 11.6 322 -999
2012-05-31 04:57:36 51°15.549 2°53.851 326.1 11.6 321 -999
2012-05-31 04:57:41 51°15.562 2°53.835 324.9 11.6 321 -999
2012-05-31 04:57:46 51°15.574 2°53.818 324 11.6 319 -999
2012-05-31 04:57:51 51°15.586 2°53.802 323.7 11.7 320 -999
2012-05-31 04:57:55 51°15.596 2°53.788 323.1 11.7 319 -999
2012-05-31 04:58:01 51°15.611 2°53.768 323.8 11.7 321 -999
2012-05-31 04:58:06 51°15.624 2°53.753 324.8 11.6 322 -999
2012-05-31 04:58:11 51°15.636 2°53.737 325.8 11.6 322 -999
2012-05-31 04:58:15 51°15.647 2°53.725 326 11.6 323 -999
2012-05-31 04:58:21 51°15.662 2°53.706 326.2 11.5 323 -999
2012-05-31 04:58:26 51°15.675 2°53.691 326.9 11.5 324 -999
2012-05-31 04:58:31 51°15.688 2°53.676 327.8 11.6 324 -999
2012-05-31 04:58:35 51°15.699 2°53.665 328.2 11.6 325 -999
2012-05-31 04:58:41 51°15.714 2°53.647 328 11.5 324 -999
2012-05-31 04:58:46 51°15.727 2°53.633 328.7 11.5 325 -999
2012-05-31 04:58:51 51°15.74 2°53.618 329.4 11.6 324 12.4
2012-05-31 04:58:55 51°15.75 2°53.605 328.5 11.5 322 -999
2012-05-31 04:59:01 51°15.765 2°53.585 326.3 11.5 320 -999
2012-05-31 04:59:06 51°15.777 2°53.569 323.8 11.5 318 -999
2012-05-31 04:59:11 51°15.789 2°53.551 322.1 11.6 317 -999
2012-05-31 04:59:15 51°15.798 2°53.537 320.7 11.6 317 -999
2012-05-31 04:59:21 51°15.812 2°53.516 320.9 11.6 318 -999
2012-05-31 04:59:26 51°15.824 2°53.499 321.2 11.6 318 12.1
2012-05-31 04:59:31 51°15.836 2°53.482 321.6 11.6 317 12.2
2012-05-31 04:59:35 51°15.846 2°53.468 321.3 11.6 317 12.3
2012-05-31 04:59:41 51°15.86 2°53.446 320.2 11.7 316 -999
2012-05-31 04:59:46 51°15.871 2°53.429 319.4 11.7 316 -999
2012-05-31 04:59:51 51°15.883 2°53.411 319.4 11.7 316 -999
2012-05-31 04:59:55 51°15.893 2°53.397 319.9 11.7 317 12.5
2012-05-31 05:00:01 51°15.907 2°53.375 320.5 11.8 317 12.7
2012-05-31 05:00:06 51°15.919 2°53.358 321.2 11.7 318 12.4
2012-05-31 05:00:11 51°15.931 2°53.34 320.7 11.7 317 -999
2012-05-31 05:00:15 51°15.94 2°53.325 320 11.7 316 -999
2012-05-31 05:00:21 51°15.954 2°53.304 319.6 11.7 317 -999
2012-05-31 05:00:26 51°15.966 2°53.286 320 11.7 316 13.2
2012-05-31 05:00:31 51°15.978 2°53.267 319 11.7 315 -999
2012-05-31 05:00:35 51°15.987 2°53.253 318.5 11.7 316 -999
2012-05-31 05:00:40 51°15.999 2°53.235 319.2 11.7 316 13.1
2012-05-31 05:00:46 51°16.012 2°53.213 319.9 11.7 315 12.8
2012-05-31 05:00:51 51°16.024 2°53.195 318.9 11.7 314 -999
2012-05-31 05:00:55 51°16.034 2°53.181 318.6 11.7 316 12.8
2012-05-31 05:01:00 51°16.045 2°53.163 319.4 11.7 317 12.7
2012-05-31 05:01:05 51°16.058 2°53.145 320.6 11.8 318 12.9
2012-05-31 05:01:11 51°16.072 2°53.125 321.7 11.7 319 13.1
2012-05-31 05:01:15 51°16.082 2°53.112 322.4 11.7 320 13.2
2012-05-31 05:01:20 51°16.095 2°53.095 323.3 11.8 320 12.8
2012-05-31 05:01:25 51°16.107 2°53.078 323.8 11.9 320 13
2012-05-31 05:01:30 51°16.119 2°53.061 323.8 11.7 319 13.3
2012-05-31 05:01:35 51°16.132 2°53.044 323.2 11.7 319 13.2
2012-05-31 05:01:40 51°16.144 2°53.027 322.6 11.8 319 13.2
2012-05-31 05:01:45 51°16.156 2°53.01 321.6 11.8 318 13.1
2012-05-31 05:01:50 51°16.168 2°52.993 321.2 11.6 320 13.5
2012-05-31 05:01:55 51°16.181 2°52.976 321.6 11.7 320 13
2012-05-31 05:01:59 51°16.191 2°52.964 322.9 11.6 321 13.4
2012-05-31 05:02:04 51°16.203 2°52.948 323.8 11.7 322 13.1
2012-05-31 05:02:10 51°16.219 2°52.93 324.8 11.6 324 13.3
2012-05-31 05:02:14 51°16.23 2°52.919 326.3 11.6 325 12.8
2012-05-31 05:02:19 51°16.243 2°52.906 328.5 11.5 327 13
2012-05-31 05:02:24 51°16.256 2°52.891 328.8 11.6 325 13.3
2012-05-31 05:02:29 51°16.269 2°52.877 329 11.6 327 13.4
2012-05-31 05:02:34 51°16.283 2°52.864 329.9 11.6 329 12.9
2012-05-31 05:02:39 51°16.297 2°52.851 331.3 11.6 329 13.5
2012-05-31 05:02:44 51°16.311 2°52.838 332.2 11.6 329 13.2
2012-05-31 05:02:49 51°16.325 2°52.826 333.1 11.5 331 13.2
2012-05-31 05:02:54 51°16.339 2°52.814 333.3 11.6 331 12.9
2012-05-31 05:02:59 51°16.353 2°52.801 334.4 11.6 331 13
2012-05-31 05:03:04 51°16.367 2°52.789 334.2 11.6 331 12.9
2012-05-31 05:03:09 51°16.38 2°52.775 333.2 11.6 328 12.7
2012-05-31 05:03:14 51°16.394 2°52.761 331.9 11.6 329 13.1
2012-05-31 05:03:19 51°16.407 2°52.746 330.9 11.6 328 12.8
2012-05-31 05:03:23 51°16.418 2°52.735 331 11.6 329 12.8
2012-05-31 05:03:28 51°16.432 2°52.722 331 11.6 330 12.4
2012-05-31 05:03:33 51°16.446 2°52.711 332.5 11.6 333 12.7
2012-05-31 05:03:39 51°16.464 2°52.698 335.1 11.6 336 12.6
2012-05-31 05:03:43 51°16.476 2°52.689 337.6 11.7 335 12.7
2012-05-31 05:03:48 51°16.49 2°52.678 337.4 11.6 335 12.5
2012-05-31 05:03:53 51°16.505 2°52.667 337.5 11.5 334 12.5
2012-05-31 05:03:58 51°16.519 2°52.657 337.4 11.5 337 12.7
2012-05-31 05:04:03 51°16.534 2°52.647 338.3 11.4 336 12
2012-05-31 05:04:08 51°16.549 2°52.637 338.6 11.5 339 12.5
2012-05-31 05:04:13 51°16.563 2°52.628 339.8 11.5 337 12.3
2012-05-31 05:04:18 51°16.578 2°52.617 339.8 11.5 336 12.2
2012-05-31 05:04:23 51°16.592 2°52.607 338.5 11.4 336 11.9
2012-05-31 05:04:27 51°16.604 2°52.599 338.5 11.5 335 12.4
2012-05-31 05:04:32 51°16.618 2°52.589 337.6 11.4 337 11.7
2012-05-31 05:04:38 51°16.636 2°52.578 339.4 11.3 337 11.6
2012-05-31 05:04:43 51°16.651 2°52.57 340.7 11.4 340 12.2
2012-05-31 05:04:47 51°16.662 2°52.563 341.9 11.4 340 11.8
2012-05-31 05:04:52 51°16.678 2°52.556 344.1 11.4 343 11.4
2012-05-31 05:04:57 51°16.693 2°52.548 345.9 11.4 342 11.7
2012-05-31 05:05:02 51°16.708 2°52.54 345.8 11.4 342 11.3
2012-05-31 05:05:07 51°16.723 2°52.532 344.4 11.3 341 11.3
2012-05-31 05:05:12 51°16.738 2°52.524 344.1 11.4 342 11.1
2012-05-31 05:05:17 51°16.752 2°52.516 343.4 11.3 341 11
2012-05-31 05:05:22 51°16.768 2°52.508 344.2 11.3 343 11.3
2012-05-31 05:05:27 51°16.782 2°52.501 345.2 11.3 343 10.7
2012-05-31 05:05:32 51°16.797 2°52.493 345.6 11.4 342 10.6
2012-05-31 05:05:37 51°16.812 2°52.485 345.4 11.3 341 10.6
2012-05-31 05:05:42 51°16.827 2°52.478 345.6 11.3 342 10.5
2012-05-31 05:05:47 51°16.842 2°52.47 345.4 11.4 341 10.3
2012-05-31 05:05:52 51°16.857 2°52.462 345 11.4 342 10.4
2012-05-31 05:05:57 51°16.872 2°52.454 345 11.3 342 10.3
2012-05-31 05:06:02 51°16.887 2°52.447 345.6 11.4 343 10.5
2012-05-31 05:06:07 51°16.902 2°52.439 346.4 11.4 343 10.2
2012-05-31 05:06:12 51°16.917 2°52.432 346.6 11.4 343 10.2
2012-05-31 05:06:17 51°16.933 2°52.427 347.7 11.2 347 10.2
2012-05-31 05:06:22 51°16.948 2°52.421 349.1 11.3 347 10.6
2012-05-31 05:06:27 51°16.963 2°52.417 351.6 11.3 350 9.8
2012-05-31 05:06:32 51°16.979 2°52.412 352.1 11.2 349 10.2
2012-05-31 05:06:37 51°16.994 2°52.409 352.4 11.2 351 10.3
2012-05-31 05:06:42 51°17.009 2°52.404 352.7 11.1 351 10.2
2012-05-31 05:06:47 51°17.025 2°52.401 353.7 11.1 352 10.8
2012-05-31 05:06:52 51°17.04 2°52.398 354.9 11.2 353 11
2012-05-31 05:06:57 51°17.055 2°52.394 354.8 11.3 352 10.5
2012-05-31 05:07:02 51°17.071 2°52.391 355 11.3 352 10.3
2012-05-31 05:07:07 51°17.087 2°52.389 355.5 11.3 355 10.8
2012-05-31 05:07:12 51°17.102 2°52.386 356.5 11.3 353 10.4
2012-05-31 05:07:17 51°17.118 2°52.384 357.9 11.2 355 10.8
2012-05-31 05:07:22 51°17.133 2°52.38 356.9 11.3 353 10.8
2012-05-31 05:07:27 51°17.149 2°52.379 356.8 11.2 356 10.6
2012-05-31 05:07:32 51°17.164 2°52.375 357.2 11.3 352 10.9
2012-05-31 05:07:37 51°17.18 2°52.373 356 11.3 353 10.5
2012-05-31 05:07:42 51°17.195 2°52.37 356 11.3 354 10.6
2012-05-31 05:07:47 51°17.211 2°52.368 356.5 11.3 355 10.7
2012-05-31 05:07:52 51°17.227 2°52.365 357.1 11.4 353 10.9
2012-05-31 05:07:57 51°17.242 2°52.362 357.4 11.3 354 10.8
2012-05-31 05:08:02 51°17.258 2°52.359 357 11.2 353 11.3
2012-05-31 05:08:07 51°17.273 2°52.356 355.7 11.3 353 11.5
2012-05-31 05:08:12 51°17.289 2°52.353 355.7 11.3 353 10.9
2012-05-31 05:08:17 51°17.304 2°52.35 357.1 11.3 352 11
2012-05-31 05:08:22 51°17.32 2°52.347 355.2 11.2 353 11
2012-05-31 05:08:27 51°17.335 2°52.344 355.7 11.3 353 11.1
2012-05-31 05:08:32 51°17.351 2°52.341 356.5 11.4 354 10.8
2012-05-31 05:08:37 51°17.367 2°52.338 356.6 11.4 354 11.1
2012-05-31 05:08:42 51°17.383 2°52.336 357.3 11.4 354 11.3
2012-05-31 05:08:47 51°17.398 2°52.334 357.1 11.4 354 10.5
2012-05-31 05:08:52 51°17.414 2°52.332 358 11.4 355 10.6
2012-05-31 05:08:57 51°17.43 2°52.331 358.9 11.5 357 11
2012-05-31 05:09:02 51°17.446 2°52.329 359.1 11.5 357 10.9
2012-05-31 05:09:07 51°17.462 2°52.328 359.5 11.5 357 11.2
2012-05-31 05:09:12 51°17.477 2°52.327 -999 11.4 358 11
2012-05-31 05:09:17 51°17.493 2°52.328 0.8 11.5 1 11.9
2012-05-31 05:09:22 51°17.509 2°52.327 0.7 11.4 -999 11.4
2012-05-31 05:09:27 51°17.525 2°52.326 2.8 11.4 358 11
2012-05-31 05:09:32 51°17.541 2°52.323 359.4 11.4 355 10.9
2012-05-31 05:09:37 51°17.557 2°52.322 358.7 11.5 357 11.1
2012-05-31 05:09:42 51°17.572 2°52.32 358.4 11.3 356 10.9
2012-05-31 05:09:47 51°17.588 2°52.318 358.9 11.2 355 11.2
2012-05-31 05:09:52 51°17.603 2°52.316 357.9 11.3 355 11.4
2012-05-31 05:09:57 51°17.619 2°52.314 358.1 11.3 357 11.1
2012-05-31 05:10:02 51°17.635 2°52.313 359.2 11.2 359 11
2012-05-31 05:10:07 51°17.651 2°52.312 0.8 11.3 357 11.1
2012-05-31 05:10:12 51°17.666 2°52.311 1 11.4 358 11.1
2012-05-31 05:10:17 51°17.682 2°52.31 0.1 11.3 359 11.1
2012-05-31 05:10:22 51°17.698 2°52.308 0.6 11.3 355 11
2012-05-31 05:10:27 51°17.714 2°52.308 0.7 11.2 359 11.3
2012-05-31 05:10:32 51°17.73 2°52.308 0.2 11.4 -999 11
2012-05-31 05:10:37 51°17.745 2°52.305 359.8 11.3 354 10.3
2012-05-31 05:10:42 51°17.761 2°52.306 358.2 11.3 357 11.1
2012-05-31 05:10:47 51°17.776 2°52.303 357.9 11.3 354 10.8
2012-05-31 05:10:52 51°17.792 2°52.299 357.3 11.3 353 10.3
2012-05-31 05:10:57 51°17.807 2°52.299 358.1 11.2 359 10.8
2012-05-31 05:11:02 51°17.823 2°52.296 357.3 11.2 353 10.8
2012-05-31 05:11:07 51°17.838 2°52.295 358.1 11.3 356 11.5
2012-05-31 05:11:12 51°17.854 2°52.293 358.7 11.4 355 11.4
2012-05-31 05:11:17 51°17.87 2°52.291 358.2 11.3 355 11.4
2012-05-31 05:11:22 51°17.886 2°52.291 359 11.4 -999 11.7
2012-05-31 05:11:27 51°17.901 2°52.289 359.5 11.3 355 11.2
2012-05-31 05:11:32 51°17.917 2°52.289 1.8 11.4 1 11.3
2012-05-31 05:11:37 51°17.932 2°52.285 357.8 11.3 351 11.4
2012-05-31 05:11:42 51°17.948 2°52.284 358.8 11.4 356 11.5
2012-05-31 05:11:47 51°17.964 2°52.282 357.4 11.3 355 11.4
2012-05-31 05:11:52 51°17.98 2°52.281 359.2 11.4 359 11.4
2012-05-31 05:11:57 51°17.995 2°52.28 359.5 11.4 357 11.1
2012-05-31 05:12:02 51°18.011 2°52.279 1.3 11.4 357 11.2
2012-05-31 05:12:07 51°18.027 2°52.279 1.8 11.4 359 11.3
2012-05-31 05:12:12 51°18.043 2°52.278 1.1 11.5 358 11.2
2012-05-31 05:12:17 51°18.059 2°52.277 1.5 11.4 357 11
2012-05-31 05:12:22 51°18.074 2°52.276 358.5 11.3 356 11.1
2012-05-31 05:12:27 51°18.09 2°52.276 1 11.4 359 11.4
2012-05-31 05:12:32 51°18.106 2°52.276 0.7 11.4 359 11.4
2012-05-31 05:12:37 51°18.122 2°52.275 3 11.4 -999 11.5
2012-05-31 05:12:42 51°18.137 2°52.275 1.1 11.5 359 11.6
2012-05-31 05:12:47 51°18.153 2°52.275 1.9 11.5 1 11.3
2012-05-31 05:12:52 51°18.169 2°52.275 3.2 11.6 1 11.1
2012-05-31 05:12:57 51°18.185 2°52.277 5.3 11.4 3 11.3
2012-05-31 05:13:02 51°18.201 2°52.278 4.8 11.4 3 11.9
2012-05-31 05:13:07 51°18.217 2°52.279 3.7 11.5 1 11.6
2012-05-31 05:13:12 51°18.232 2°52.281 4.7 11.5 3 11.3
2012-05-31 05:13:17 51°18.248 2°52.282 5.6 11.4 4 12.1
2012-05-31 05:13:22 51°18.264 2°52.283 2.4 11.2 -999 11.8
2012-05-31 05:13:27 51°18.28 2°52.285 6.3 11.4 5 12
2012-05-31 05:13:32 51°18.296 2°52.284 4.1 11.4 358 12.2
2012-05-31 05:13:37 51°18.311 2°52.286 2.6 11.3 4 11.9
2012-05-31 05:13:42 51°18.327 2°52.286 4.9 11.4 1 11.9
2012-05-31 05:13:47 51°18.343 2°52.285 0.7 11.3 358 12.1
2012-05-31 05:13:52 51°18.359 2°52.285 2.2 11.5 1 11.8
2012-05-31 05:13:57 51°18.374 2°52.285 2 11.5 359 11.6
2012-05-31 05:14:02 51°18.39 2°52.286 3 11.3 2 12.1
2012-05-31 05:14:07 51°18.406 2°52.286 3 11.4 1 12.3
2012-05-31 05:14:12 51°18.422 2°52.287 3.7 11.4 1 12.4
2012-05-31 05:14:17 51°18.437 2°52.288 3.2 11.4 2 11.8
2012-05-31 05:14:22 51°18.453 2°52.289 5 11.4 3 12.1
2012-05-31 05:14:27 51°18.469 2°52.29 5 11.4 2 12
2012-05-31 05:14:32 51°18.485 2°52.292 5.2 11.4 4 12
2012-05-31 05:14:37 51°18.5 2°52.294 5.3 11.4 5 12.6
2012-05-31 05:14:42 51°18.516 2°52.295 5.9 11.3 4 12.7
2012-05-31 05:14:47 51°18.532 2°52.298 7.4 11.3 6 12.5
2012-05-31 05:14:52 51°18.547 2°52.298 5.1 11.3 -999 12.4
2012-05-31 05:14:57 51°18.563 2°52.299 4 11.4 2 12.5
2012-05-31 05:15:02 51°18.579 2°52.299 4.1 11.4 -999 12.3
2012-05-31 05:15:07 51°18.595 2°52.299 3 11.4 -999 12.2
2012-05-31 05:15:12 51°18.611 2°52.301 3.2 11.5 3 12.7
2012-05-31 05:15:17 51°18.626 2°52.298 2.1 11.4 356 12.4
2012-05-31 05:15:22 51°18.642 2°52.301 1.6 11.4 4 12.4
2012-05-31 05:15:27 51°18.658 2°52.298 1.7 11.4 354 12.3
2012-05-31 05:15:32 51°18.674 2°52.299 0.3 11.3 1 12.6
2012-05-31 05:15:37 51°18.69 2°52.297 1.5 11.5 356 12.8
2012-05-31 05:15:42 51°18.705 2°52.297 0.8 11.4 -999 12.7
2012-05-31 05:15:47 51°18.721 2°52.296 0.4 11.5 358 12.7
2012-05-31 05:15:52 51°18.737 2°52.297 1.7 11.6 -999 12.6
2012-05-31 05:15:57 51°18.753 2°52.297 2.2 11.5 -999 13
2012-05-31 05:16:02 51°18.769 2°52.296 1.8 11.4 358 12.9
2012-05-31 05:16:07 51°18.785 2°52.296 1 11.4 359 13.2
2012-05-31 05:16:12 51°18.801 2°52.296 1.5 11.6 -999 13.2
2012-05-31 05:16:17 51°18.816 2°52.295 0.4 11.4 357 13.1
2012-05-31 05:16:22 51°18.833 2°52.295 1.6 11.5 2 13.5
2012-05-31 05:16:27 51°18.849 2°52.293 0.4 11.5 356 13.7
2012-05-31 05:16:32 51°18.864 2°52.293 0.5 11.5 -999 13.3
2012-05-31 05:16:37 51°18.88 2°52.292 1.2 11.5 357 13.4
2012-05-31 05:16:42 51°18.896 2°52.292 0.5 11.4 359 13.8
2012-05-31 05:16:47 51°18.912 2°52.292 1.4 11.6 -999 13.8
2012-05-31 05:16:52 51°18.928 2°52.291 1.4 11.6 358 13.4
2012-05-31 05:16:57 51°18.945 2°52.292 2.5 11.6 -999 13.7
2012-05-31 05:17:02 51°18.96 2°52.292 1.6 11.5 359 14
2012-05-31 05:17:07 51°18.976 2°52.292 1.6 11.6 1 14.2
2012-05-31 05:17:12 51°18.993 2°52.292 2 11.5 2 14.5
2012-05-31 05:17:17 51°19.009 2°52.294 3.6 11.6 4 14.4
2012-05-31 05:17:22 51°19.025 2°52.292 4.4 11.6 358 13.9
2012-05-31 05:17:27 51°19.041 2°52.295 3.6 11.5 5 14.7
2012-05-31 05:17:32 51°19.057 2°52.294 3 11.6 359 14.6
2012-05-31 05:17:37 51°19.073 2°52.294 2.1 11.6 1 14.1
2012-05-31 05:17:42 51°19.089 2°52.295 1.3 11.6 2 14.8
2012-05-31 05:17:47 51°19.105 2°52.293 0.9 11.5 357 14.9
2012-05-31 05:17:52 51°19.121 2°52.294 1.7 11.6 3 15.1
2012-05-31 05:17:57 51°19.137 2°52.294 1.7 11.6 359 14.7
2012-05-31 05:18:02 51°19.153 2°52.294 2.5 11.6 -999 14.6
2012-05-31 05:18:07 51°19.169 2°52.293 2.1 11.6 359 14.8
2012-05-31 05:18:12 51°19.185 2°52.294 1.5 11.7 -999 14.8
2012-05-31 05:18:17 51°19.202 2°52.293 1.3 11.6 359 15
2012-05-31 05:18:22 51°19.218 2°52.294 0.8 11.6 1 15.3
2012-05-31 05:18:27 51°19.234 2°52.293 0.8 11.6 358 15.3
2012-05-31 05:18:32 51°19.25 2°52.293 1.5 11.7 -999 15
2012-05-31 05:18:37 51°19.266 2°52.293 3 11.7 1 15.7
2012-05-31 05:18:42 51°19.283 2°52.292 1.1 11.6 359 15.8
2012-05-31 05:18:47 51°19.299 2°52.294 2.3 11.7 3 15.9
2012-05-31 05:18:52 51°19.315 2°52.293 2.6 11.7 1 15.6
2012-05-31 05:18:57 51°19.331 2°52.295 3.1 11.6 5 15.6
2012-05-31 05:19:02 51°19.347 2°52.295 4.5 11.6 -999 15.8
2012-05-31 05:19:07 51°19.363 2°52.297 3.4 11.6 3 16.1
2012-05-31 05:19:12 51°19.379 2°52.298 4.4 11.6 2 15.9
2012-05-31 05:19:17 51°19.395 2°52.298 5.1 11.5 2 15.9
2012-05-31 05:19:22 51°19.411 2°52.301 4.3 11.6 6 16
2012-05-31 05:19:27 51°19.428 2°52.298 4.2 11.5 356 15.9
2012-05-31 05:19:32 51°19.443 2°52.301 1.7 11.4 4 16.1
2012-05-31 05:19:37 51°19.459 2°52.299 1.5 11.5 358 15.9
2012-05-31 05:19:42 51°19.475 2°52.3 -999 11.4 -999 15.9
2012-05-31 05:19:47 51°19.491 2°52.298 1.9 11.4 357 16.3
2012-05-31 05:19:52 51°19.507 2°52.298 0.4 11.5 -999 16.5
2012-05-31 05:19:57 51°19.523 2°52.298 1.5 11.6 1 16.1
2012-05-31 05:20:02 51°19.539 2°52.298 2 11.6 359 16.1
2012-05-31 05:20:07 51°19.555 2°52.298 2.5 11.6 -999 16.4
2012-05-31 05:20:12 51°19.571 2°52.297 1 11.6 358 16.5
2012-05-31 05:20:17 51°19.587 2°52.298 1 11.6 -999 16.2
2012-05-31 05:20:22 51°19.603 2°52.298 1.7 11.5 -999 16.5
2012-05-31 05:20:27 51°19.619 2°52.298 2.9 11.4 2 16.6
2012-05-31 05:20:32 51°19.635 2°52.3 4.4 11.6 5 16.8
2012-05-31 05:20:37 51°19.651 2°52.298 2.1 11.5 357 16.4
2012-05-31 05:20:42 51°19.667 2°52.301 4 11.6 3 16.2
2012-05-31 05:20:47 51°19.683 2°52.3 3.1 11.6 359 16.3
2012-05-31 05:20:52 51°19.699 2°52.3 1.4 11.5 -999 16.5
2012-05-31 05:20:57 51°19.715 2°52.3 3 11.5 1 16.8
2012-05-31 05:21:02 51°19.731 2°52.301 1.1 11.5 1 16.6
2012-05-31 05:21:07 51°19.747 2°52.3 2.9 11.6 358 16.5
2012-05-31 05:21:12 51°19.763 2°52.299 0.9 11.6 359 16.6
2012-05-31 05:21:17 51°19.779 2°52.299 2.1 11.5 -999 16.8
2012-05-31 05:21:22 51°19.795 2°52.3 1.7 11.6 1 16.9
2012-05-31 05:21:27 51°19.812 2°52.3 3 11.6 359 16.6
2012-05-31 05:21:32 51°19.828 2°52.302 3.5 11.6 4 16.8
2012-05-31 05:21:37 51°19.844 2°52.302 3.1 11.5 -999 17.2
2012-05-31 05:21:42 51°19.86 2°52.303 2.9 11.6 4 17.4
2012-05-31 05:21:47 51°19.876 2°52.305 4 11.6 4 17.1
2012-05-31 05:21:52 51°19.892 2°52.307 6.8 11.6 5 16.9
2012-05-31 05:21:57 51°19.908 2°52.307 5 11.6 -999 16.9
2012-05-31 05:22:02 51°19.924 2°52.309 4.3 11.6 3 16.1
2012-05-31 05:22:07 51°19.94 2°52.311 5.6 11.6 3 16.5
2012-05-31 05:22:12 51°19.956 2°52.315 6.1 11.6 8 16.7
2012-05-31 05:22:17 51°19.972 2°52.315 5.1 11.6 -999 16.6
2012-05-31 05:22:22 51°19.988 2°52.317 3.5 11.5 5 16.8
2012-05-31 05:22:27 51°20.003 2°52.318 4.5 11.5 3 16.9
2012-05-31 05:22:32 51°20.019 2°52.319 4.3 11.5 1 16.9
2012-05-31 05:22:37 51°20.035 2°52.319 3.9 11.5 2 17
2012-05-31 05:22:42 51°20.051 2°52.32 5.2 11.5 2 17
2012-05-31 05:22:47 51°20.067 2°52.322 3.7 11.5 2 16.9
2012-05-31 05:22:52 51°20.083 2°52.323 4.3 11.6 4 16.9
2012-05-31 05:22:57 51°20.099 2°52.325 3.7 11.5 4 16.9
2012-05-31 05:23:02 51°20.115 2°52.326 5.3 11.5 1 16.9
2012-05-31 05:23:07 51°20.131 2°52.326 3.8 11.7 1 16.9
2012-05-31 05:23:12 51°20.148 2°52.329 4.8 11.8 5 16.9
2012-05-31 05:23:17 51°20.164 2°52.329 4.8 11.7 1 16.6
2012-05-31 05:23:22 51°20.18 2°52.332 5.8 11.7 6 16.9
2012-05-31 05:23:27 51°20.196 2°52.333 5.2 11.6 4 17.1
2012-05-31 05:23:32 51°20.212 2°52.334 3.6 11.5 3 16.9
2012-05-31 05:23:37 51°20.228 2°52.336 6.4 11.6 4 16.6
2012-05-31 05:23:42 51°20.244 2°52.336 2.9 11.4 -999 16.7
2012-05-31 05:23:47 51°20.26 2°52.338 4.6 11.6 4 16.9
2012-05-31 05:23:52 51°20.276 2°52.338 4.2 11.5 -999 16.5
2012-05-31 05:23:57 51°20.291 2°52.341 4.3 11.4 4 16.6
2012-05-31 05:24:02 51°20.307 2°52.341 4.4 11.6 1 16.4
2012-05-31 05:24:07 51°20.323 2°52.343 4.1 11.5 4 16.5
2012-05-31 05:24:12 51°20.339 2°52.342 3.4 11.5 -999 16.6
2012-05-31 05:24:17 51°20.355 2°52.344 2.7 11.6 2 16.1
2012-05-31 05:24:22 51°20.371 2°52.344 3.9 11.6 1 16
2012-05-31 05:24:27 51°20.387 2°52.346 4.2 11.5 3 16.4
2012-05-31 05:24:32 51°20.403 2°52.346 3.9 11.4 1 16.2
2012-05-31 05:24:37 51°20.419 2°52.349 4.7 11.6 4 16.5
2012-05-31 05:24:42 51°20.435 2°52.348 4.4 11.6 -999 16.2
2012-05-31 05:24:47 51°20.451 2°52.351 4.9 11.6 5 15.9
2012-05-31 05:24:52 51°20.467 2°52.353 4.9 11.6 4 15.9
2012-05-31 05:24:57 51°20.483 2°52.356 6.1 11.7 7 15.7
2012-05-31 05:25:02 51°20.499 2°52.358 6.8 11.6 2 15.6
2012-05-31 05:25:07 51°20.515 2°52.358 4.3 11.6 2 15.4
2012-05-31 05:25:12 51°20.531 2°52.362 6.9 11.6 8 15.8
2012-05-31 05:25:17 51°20.547 2°52.361 4.5 11.5 -999 16.2
2012-05-31 05:25:22 51°20.563 2°52.365 4.6 11.5 8 15.1
2012-05-31 05:25:27 51°20.579 2°52.365 5.5 11.4 -999 15.2
2012-05-31 05:25:32 51°20.595 2°52.367 4.2 11.5 5 15.4
2012-05-31 05:25:37 51°20.61 2°52.367 2.4 11.4 1 15
2012-05-31 05:25:42 51°20.626 2°52.369 5 11.4 3 15.5
2012-05-31 05:25:47 51°20.642 2°52.368 2.1 11.4 357 15.3
2012-05-31 05:25:52 51°20.658 2°52.37 4.6 11.5 6 15.3
2012-05-31 05:25:57 51°20.674 2°52.37 1.5 11.3 358 15.2
2012-05-31 05:26:02 51°20.69 2°52.37 3 11.4 2 15.2
2012-05-31 05:26:07 51°20.706 2°52.373 2.9 11.4 4 15.6
2012-05-31 05:26:12 51°20.721 2°52.374 4 11.5 4 15.3
2012-05-31 05:26:17 51°20.737 2°52.375 3.9 11.5 1 15
2012-05-31 05:26:22 51°20.754 2°52.377 4.3 11.5 3 15
2012-05-31 05:26:27 51°20.77 2°52.378 4.2 11.7 4 15.2
2012-05-31 05:26:32 51°20.786 2°52.379 4.9 11.6 2 14.9
2012-05-31 05:26:37 51°20.802 2°52.38 3.5 11.6 2 14.8
2012-05-31 05:26:42 51°20.818 2°52.382 4.2 11.7 4 14.7
2012-05-31 05:26:47 51°20.834 2°52.385 4.7 11.7 6 15.3
2012-05-31 05:26:52 51°20.85 2°52.385 3.7 11.5 -999 15.3
2012-05-31 05:26:57 51°20.866 2°52.388 6.7 11.6 5 15.5
2012-05-31 05:27:02 51°20.882 2°52.388 3.7 11.5 -999 15.1
2012-05-31 05:27:07 51°20.898 2°52.392 4.4 11.5 7 15.6
2012-05-31 05:27:12 51°20.914 2°52.392 5 11.6 2 15.6
2012-05-31 05:27:17 51°20.93 2°52.396 5.4 11.7 9 16
2012-05-31 05:27:22 51°20.946 2°52.396 4.4 11.5 4 16
2012-05-31 05:27:27 51°20.962 2°52.397 5.2 11.5 3 15.9
2012-05-31 05:27:32 51°20.978 2°52.398 2.8 11.5 1 15.9
2012-05-31 05:27:37 51°20.993 2°52.402 4 11.5 9 16.5
2012-05-31 05:27:42 51°21.009 2°52.408 9.4 11.4 14 16.5
2012-05-31 05:27:47 51°21.024 2°52.418 16.8 11.3 21 16.7
2012-05-31 05:27:52 51°21.037 2°52.43 22.7 11.3 29 16.8
2012-05-31 05:27:57 51°21.051 2°52.443 29.2 11.3 30 16.4
2012-05-31 05:28:02 51°21.063 2°52.459 34.2 11.4 38 16.7
2012-05-31 05:28:07 51°21.076 2°52.474 36.9 11.5 37 16.3
2012-05-31 05:28:12 51°21.087 2°52.492 40.2 11.6 43 16.5
2012-05-31 05:28:17 51°21.1 2°52.508 40.8 11.5 40 16.4
2012-05-31 05:28:22 51°21.111 2°52.526 42.5 11.7 45 16.8
2012-05-31 05:28:27 51°21.124 2°52.544 41.5 11.7 41 16.7
2012-05-31 05:28:32 51°21.135 2°52.562 44.7 11.8 45 16.6
2012-05-31 05:28:37 51°21.147 2°52.58 43.6 11.9 45 16.6
2012-05-31 05:28:42 51°21.16 2°52.596 42.3 11.8 40 16.4
2012-05-31 05:28:47 51°21.172 2°52.614 42.2 11.7 42 16.7
2012-05-31 05:28:51 51°21.182 2°52.627 40.8 11.6 40 16.7
2012-05-31 05:28:57 51°21.196 2°52.648 40.9 11.7 43 16.4
2012-05-31 05:29:02 51°21.209 2°52.665 42.4 12 42 16.9
2012-05-31 05:29:07 51°21.221 2°52.683 40.8 11.9 42 17.4
2012-05-31 05:29:11 51°21.231 2°52.696 41.9 11.9 40 17.4
2012-05-31 05:29:17 51°21.246 2°52.718 42 12 43 17.3
2012-05-31 05:29:22 51°21.259 2°52.734 41.2 11.8 40 17
2012-05-31 05:29:27 51°21.27 2°52.753 41.9 11.9 43 17.6
2012-05-31 05:29:32 51°21.283 2°52.771 42.2 12 43 17.9
2012-05-31 05:29:37 51°21.295 2°52.789 44.2 12 44 17.4
2012-05-31 05:29:42 51°21.307 2°52.808 44.2 11.9 43 17.4
2012-05-31 05:29:47 51°21.319 2°52.826 43 12 44 17.5
2012-05-31 05:29:52 51°21.331 2°52.845 43.2 12 44 17.6
2012-05-31 05:29:57 51°21.342 2°52.864 45.2 12.1 46 17.3
2012-05-31 05:30:02 51°21.354 2°52.882 45.5 12.1 44 17.6
2012-05-31 05:30:07 51°21.366 2°52.901 43.9 12 44 17.8
2012-05-31 05:30:12 51°21.378 2°52.92 45.4 12.1 46 17.6
2012-05-31 05:30:17 51°21.39 2°52.938 43.9 11.9 43 17.5
2012-05-31 05:30:22 51°21.402 2°52.955 42.3 11.6 41 17.5
2012-05-31 05:30:27 51°21.414 2°52.974 42.9 11.9 45 17.9
2012-05-31 05:30:32 51°21.427 2°52.991 42.9 11.9 41 17.8
2012-05-31 05:30:37 51°21.438 2°53.009 42.3 11.7 43 17.2
2012-05-31 05:30:42 51°21.45 2°53.027 43.2 11.8 44 17.7
2012-05-31 05:30:47 51°21.463 2°53.044 41 11.9 40 17.7
2012-05-31 05:30:52 51°21.475 2°53.062 41.9 11.9 44 17.7
2012-05-31 05:30:57 51°21.486 2°53.08 44.2 11.6 45 17.1
2012-05-31 05:31:02 51°21.497 2°53.099 45.7 11.7 47 17.4
2012-05-31 05:31:07 51°21.509 2°53.118 46.5 11.7 46 17.6
2012-05-31 05:31:11 51°21.518 2°53.132 45.8 11.6 44 17.8
2012-05-31 05:31:17 51°21.533 2°53.152 42.3 11.7 41 17.5
2012-05-31 05:31:22 51°21.545 2°53.17 41.7 11.7 40 17.6
2012-05-31 05:31:27 51°21.557 2°53.187 39.8 11.7 40 17.8
2012-05-31 05:31:32 51°21.57 2°53.204 42.4 11.9 43 17.7
2012-05-31 05:31:37 51°21.582 2°53.222 41.4 12 41 17.8
2012-05-31 05:31:42 51°21.595 2°53.238 40.6 11.8 39 17.7
2012-05-31 05:31:47 51°21.607 2°53.256 40.8 12 43 18.2
2012-05-31 05:31:52 51°21.621 2°53.272 40.3 12.1 37 17.8
2012-05-31 05:31:57 51°21.633 2°53.289 39.8 11.9 40 17.9
2012-05-31 05:32:02 51°21.646 2°53.307 40 12 40 18.3
2012-05-31 05:32:07 51°21.658 2°53.324 40.4 12 42 17.9
2012-05-31 05:32:12 51°21.67 2°53.341 41.7 11.9 41 17.8
2012-05-31 05:32:17 51°21.682 2°53.36 43.1 12.2 44 18
2012-05-31 05:32:22 51°21.696 2°53.377 41.6 12.1 40 18.3
2012-05-31 05:32:27 51°21.707 2°53.396 42.7 11.9 45 18.1
2012-05-31 05:32:32 51°21.719 2°53.414 44.4 12 44 18.2
2012-05-31 05:32:37 51°21.732 2°53.432 42.7 12 40 18.1
2012-05-31 05:32:42 51°21.743 2°53.451 42.2 12 46 18.1
2012-05-31 05:32:47 51°21.756 2°53.469 43.9 11.9 43 18
2012-05-31 05:32:52 51°21.767 2°53.489 45.3 12.1 47 18.5
2012-05-31 05:32:57 51°21.78 2°53.505 42.9 11.9 40 18.6
2012-05-31 05:33:02 51°21.791 2°53.525 42.9 11.8 47 18.9
2012-05-31 05:33:07 51°21.803 2°53.543 45.6 12.1 43 19
2012-05-31 05:33:12 51°21.815 2°53.562 44.4 12.2 45 19.2
2012-05-31 05:33:17 51°21.828 2°53.579 41.1 11.9 42 19.1
2012-05-31 05:33:22 51°21.839 2°53.598 44.3 12.1 45 19.1
2012-05-31 05:33:27 51°21.852 2°53.616 44.2 12.2 41 19.5
2012-05-31 05:33:32 51°21.865 2°53.633 41.8 12.1 40 19.6
2012-05-31 05:33:37 51°21.878 2°53.65 39.6 12.1 41 19.4
2012-05-31 05:33:42 51°21.891 2°53.668 41.2 12.2 40 19.5
2012-05-31 05:33:47 51°21.903 2°53.685 41.4 12 39 19.8
2012-05-31 05:33:52 51°21.916 2°53.702 40.7 11.9 42 19.8
2012-05-31 05:33:57 51°21.929 2°53.719 41.4 11.9 39 19.8
2012-05-31 05:34:02 51°21.941 2°53.737 40.6 12 41 20
2012-05-31 05:34:07 51°21.954 2°53.754 42.2 11.9 42 20.2
2012-05-31 05:34:12 51°21.966 2°53.771 41.5 12 39 20.2
2012-05-31 05:34:17 51°21.979 2°53.787 40 12 39 19.9
2012-05-31 05:34:22 51°21.992 2°53.805 40.2 12.1 40 20.5
2012-05-31 05:34:27 51°22.005 2°53.822 39.5 11.9 40 20.4
2012-05-31 05:34:32 51°22.017 2°53.838 41.1 11.8 40 20.6
2012-05-31 05:34:37 51°22.03 2°53.856 39.5 12.1 42 20.3
2012-05-31 05:34:42 51°22.043 2°53.872 40.7 12.2 38 20.3
2012-05-31 05:34:47 51°22.056 2°53.89 39.3 12.1 41 20
2012-05-31 05:34:52 51°22.069 2°53.907 41.5 12.2 39 20.2
2012-05-31 05:34:57 51°22.082 2°53.924 39.3 12 41 20
2012-05-31 05:35:02 51°22.095 2°53.94 41.3 12.1 40 20
2012-05-31 05:35:07 51°22.108 2°53.956 39.1 12 36 19.9
2012-05-31 05:35:12 51°22.122 2°53.971 37.8 11.9 35 20
2012-05-31 05:35:17 51°22.136 2°53.984 34.7 11.8 30 19.7
2012-05-31 05:35:22 51°22.151 2°53.995 30.5 11.7 25 19.8
2012-05-31 05:35:27 51°22.166 2°54.007 27.2 11.8 26 20
2012-05-31 05:35:32 51°22.181 2°54.013 22.1 11.6 17 20.4
2012-05-31 05:35:37 51°22.196 2°54.022 18 11.7 20 20.1
2012-05-31 05:35:42 51°22.212 2°54.026 18.2 11.6 8 20.2
2012-05-31 05:35:47 51°22.228 2°54.03 11.3 11.6 9 20.4
2012-05-31 05:35:52 51°22.244 2°54.03 8.1 11.6 1 20.4
2012-05-31 05:35:57 51°22.261 2°54.033 3.7 11.8 5 20.9
2012-05-31 05:36:02 51°22.277 2°54.032 2.3 11.8 -999 20.7
2012-05-31 05:36:07 51°22.293 2°54.032 1.4 11.8 -999 20.2
2012-05-31 05:36:12 51°22.31 2°54.032 1.4 11.7 -999 20.8
2012-05-31 05:36:17 51°22.326 2°54.031 -999 11.8 357 20.8
2012-05-31 05:36:22 51°22.342 2°54.032 359.5 11.8 1 21.2
2012-05-31 05:36:27 51°22.358 2°54.031 359.3 11.7 357 20.9
2012-05-31 05:36:32 51°22.375 2°54.031 359.5 11.8 -999 21.3
2012-05-31 05:36:37 51°22.391 2°54.031 359.4 11.9 -999 21.4
2012-05-31 05:36:42 51°22.408 2°54.03 0.1 11.9 358 21.4
2012-05-31 05:36:47 51°22.425 2°54.029 359.7 12 357 21.2
2012-05-31 05:36:52 51°22.441 2°54.029 359.4 12.1 1 21.7
2012-05-31 05:36:57 51°22.457 2°54.027 358.6 11.8 356 21.3
2012-05-31 05:37:02 51°22.474 2°54.027 359.8 11.8 -999 21.8
2012-05-31 05:37:07 51°22.49 2°54.025 359.4 11.8 356 22.4
2012-05-31 05:37:12 51°22.507 2°54.025 359.4 11.8 -999 22.6
2012-05-31 05:37:17 51°22.523 2°54.024 359.2 11.9 358 23.2
2012-05-31 05:37:22 51°22.54 2°54.024 -999 12 -999 23.2
2012-05-31 05:37:27 51°22.556 2°54.024 0.8 11.9 -999 23.3
2012-05-31 05:37:32 51°22.572 2°54.024 359.8 11.7 1 24
2012-05-31 05:37:37 51°22.589 2°54.023 0.8 11.8 359 23.8
2012-05-31 05:37:43 51°22.608 2°54.021 358.6 11.6 356 -999
2012-05-31 05:37:47 51°22.622 2°54.021 1.4 11.7 1 23.6
2012-05-31 05:37:52 51°22.638 2°54.018 358.1 11.7 354 23.9
2012-05-31 05:37:58 51°22.658 2°54.018 357.9 11.8 1 24
2012-05-31 05:38:03 51°22.674 2°54.016 359.6 11.9 355 24.1
2012-05-31 05:38:07 51°22.687 2°54.015 358 11.8 356 23.6
2012-05-31 05:38:12 51°22.704 2°54.014 359.4 11.9 358 23.9
2012-05-31 05:38:17 51°22.72 2°54.012 358.3 11.9 359 23.4
2012-05-31 05:38:22 51°22.737 2°54.012 0.6 12 358 23.3
2012-05-31 05:38:27 51°22.754 2°54.011 359.7 12 358 23.5
2012-05-31 05:38:32 51°22.771 2°54.011 359.8 12 -999 23.7
2012-05-31 05:38:37 51°22.787 2°54.01 0.5 12.1 358 23.5
2012-05-31 05:38:42 51°22.804 2°54.01 0.1 12 1 23.6
2012-05-31 05:38:47 51°22.821 2°54.009 1.4 12 358 23.8
2012-05-31 05:38:52 51°22.837 2°54.01 0.9 11.8 -999 23.1
2012-05-31 05:38:57 51°22.853 2°54.009 3.6 11.8 -999 22.7
2012-05-31 05:39:02 51°22.87 2°54.01 1.1 11.7 -999 23
2012-05-31 05:39:07 51°22.886 2°54.01 1.2 11.7 1 22.8
2012-05-31 05:39:12 51°22.902 2°54.011 0.8 11.7 1 21.3
2012-05-31 05:39:17 51°22.919 2°54.011 3.9 11.8 1 17.9
2012-05-31 05:39:22 51°22.935 2°54.011 1.1 11.8 359 21
2012-05-31 05:39:27 51°22.951 2°54.011 0.7 11.7 -999 21.1
2012-05-31 05:39:32 51°22.968 2°54.011 2.3 11.9 -999 22.7
2012-05-31 05:39:37 51°22.984 2°54.011 2.3 11.9 359 22.9
2012-05-31 05:39:42 51°23 2°54.013 3.3 11.7 4 23.1
2012-05-31 05:39:47 51°23.017 2°54.013 3 11.8 2 23.4
2012-05-31 05:39:52 51°23.033 2°54.014 1.5 11.8 2 22.5
2012-05-31 05:39:57 51°23.05 2°54.014 2.9 11.7 1 21.4
2012-05-31 05:40:02 51°23.066 2°54.016 4.2 11.8 3 21.4
2012-05-31 05:40:07 51°23.082 2°54.015 1.8 11.7 357 22.6
2012-05-31 05:40:12 51°23.098 2°54.014 0.6 11.7 359 23.3
2012-05-31 05:40:17 51°23.115 2°54.015 1.5 11.9 1 23.3
2012-05-31 05:40:22 51°23.131 2°54.015 1.5 12 -999 22.9
2012-05-31 05:40:27 51°23.148 2°54.016 1.6 11.8 3 22.8
2012-05-31 05:40:32 51°23.164 2°54.016 2.2 11.7 -999 21.8
2012-05-31 05:40:37 51°23.18 2°54.015 1.9 11.8 357 20.7
2012-05-31 05:40:42 51°23.196 2°54.016 0.3 11.8 3 22.7
2012-05-31 05:40:47 51°23.213 2°54.015 1.2 11.8 359 22.6
2012-05-31 05:40:52 51°23.229 2°54.015 0.9 11.9 -999 21.5
2012-05-31 05:40:57 51°23.246 2°54.014 1 11.7 358 21
2012-05-31 05:41:02 51°23.262 2°54.015 2.5 11.8 -999 20.5
2012-05-31 05:41:07 51°23.278 2°54.014 0.4 11.7 358 21.7
2012-05-31 05:41:12 51°23.294 2°54.013 0.2 11.8 359 21.5
2012-05-31 05:41:17 51°23.311 2°54.013 0.6 11.8 -999 21.3
2012-05-31 05:41:22 51°23.327 2°54.013 1.6 11.8 359 20.8
2012-05-31 05:41:27 51°23.343 2°54.012 1.2 11.7 359 21.5
2012-05-31 05:41:32 51°23.36 2°54.014 1.8 11.8 3 21.5
2012-05-31 05:41:37 51°23.376 2°54.013 1.5 11.7 359 21.1
2012-05-31 05:41:42 51°23.392 2°54.012 359.9 11.7 357 20.3
2012-05-31 05:41:47 51°23.409 2°54.011 0.1 11.7 359 20.1
2012-05-31 05:41:52 51°23.425 2°54.011 1 11.8 359 21.6
2012-05-31 05:41:57 51°23.442 2°54.011 1.1 11.8 359 21.7
2012-05-31 05:42:02 51°23.458 2°54.011 359.9 11.8 -999 21.6
2012-05-31 05:42:07 51°23.474 2°54.009 1.4 11.7 358 21.2
2012-05-31 05:42:12 51°23.491 2°54.009 0.3 11.9 -999 21.2
2012-05-31 05:42:17 51°23.507 2°54.007 358.6 11.8 357 20.6
2012-05-31 05:42:22 51°23.523 2°54.007 0.5 11.9 359 20.6
2012-05-31 05:42:27 51°23.54 2°54.006 358.8 11.8 357 20.3
2012-05-31 05:42:32 51°23.556 2°54.005 0.1 12 358 19.1
2012-05-31 05:42:37 51°23.573 2°54.005 359.3 12 -999 21.4
2012-05-31 05:42:42 51°23.59 2°54.004 359.9 11.9 358 22.2
2012-05-31 05:42:47 51°23.606 2°54.002 358 11.8 354 21.3
2012-05-31 05:42:52 51°23.622 2°54.003 0.4 11.9 2 21.7
2012-05-31 05:42:57 51°23.639 2°53.999 358.4 11.8 353 19.7
2012-05-31 05:43:02 51°23.655 2°54 359.4 11.8 359 21.1
2012-05-31 05:43:07 51°23.671 2°53.997 358.2 11.8 355 20.1
2012-05-31 05:43:12 51°23.688 2°53.998 358.9 11.8 -999 19.6
2012-05-31 05:43:17 51°23.704 2°53.996 359 11.8 357 17.9
2012-05-31 05:43:22 51°23.721 2°53.995 359.6 12 358 20.1
2012-05-31 05:43:27 51°23.738 2°53.994 359.5 12 357 21.2
2012-05-31 05:43:32 51°23.754 2°53.994 0.3 12.1 -999 21.7
2012-05-31 05:43:37 51°23.771 2°53.993 0.1 11.9 358 22.1
2012-05-31 05:43:42 51°23.787 2°53.995 1.7 12.1 5 22.6
2012-05-31 05:43:47 51°23.804 2°53.993 1.1 11.9 356 21.9
2012-05-31 05:43:52 51°23.82 2°53.995 4.1 12 4 22.2
2012-05-31 05:43:57 51°23.837 2°53.993 0.2 11.9 356 21.8
2012-05-31 05:44:02 51°23.853 2°53.993 358.6 11.8 359 21.7
2012-05-31 05:44:07 51°23.869 2°53.993 1.5 11.9 1 22.2
2012-05-31 05:44:12 51°23.886 2°53.993 359.4 11.7 -999 22.2
2012-05-31 05:44:17 51°23.902 2°53.991 359.9 11.8 356 22.5
2012-05-31 05:44:22 51°23.919 2°53.991 359 11.9 358 22.5
2012-05-31 05:44:27 51°23.935 2°53.992 1 12 1 22.7
2012-05-31 05:44:32 51°23.952 2°53.991 0.5 11.9 358 22.5
2012-05-31 05:44:37 51°23.968 2°53.992 1.4 12 -999 22.8
2012-05-31 05:44:42 51°23.985 2°53.991 0.7 12 -999 23.3
2012-05-31 05:44:47 51°24.001 2°53.992 1.2 11.8 2 22.4
2012-05-31 05:44:52 51°24.018 2°53.992 1.3 11.8 -999 22.8
2012-05-31 05:44:57 51°24.034 2°53.992 1.7 11.9 1 22.6
2012-05-31 05:45:02 51°24.051 2°53.994 3.1 11.9 -999 22.6
2012-05-31 05:45:07 51°24.067 2°53.994 0.5 11.9 -999 22.4
2012-05-31 05:45:12 51°24.084 2°53.992 1.7 11.8 359 22.2
2012-05-31 05:45:17 51°24.1 2°53.993 0.6 11.8 3 23.4
2012-05-31 05:45:22 51°24.116 2°53.993 1.3 11.8 359 23
2012-05-31 05:45:27 51°24.133 2°53.993 2.1 12 1 23.2
2012-05-31 05:45:32 51°24.15 2°53.992 1.2 12 358 22.3
2012-05-31 05:45:37 51°24.166 2°53.993 1.8 12 1 21.1
2012-05-31 05:45:42 51°24.183 2°53.992 0.7 12.1 358 22.5
2012-05-31 05:45:47 51°24.2 2°53.992 0.1 11.9 359 22.5
2012-05-31 05:45:52 51°24.216 2°53.992 0.1 12 -999 22.6
2012-05-31 05:45:57 51°24.233 2°53.99 359.8 12 357 22.7
2012-05-31 05:46:02 51°24.249 2°53.991 -999 11.9 -999 22.3
2012-05-31 05:46:07 51°24.266 2°53.99 0.9 12 359 22.2
2012-05-31 05:46:12 51°24.282 2°53.99 0.6 11.9 -999 22.1
2012-05-31 05:46:17 51°24.299 2°53.991 0.4 12 1 20.4
2012-05-31 05:46:22 51°24.316 2°53.991 1 11.9 -999 21
2012-05-31 05:46:27 51°24.332 2°53.991 1.2 11.8 -999 21.2
2012-05-31 05:46:32 51°24.349 2°53.991 1.2 11.9 1 21.2
2012-05-31 05:46:37 51°24.365 2°53.991 1.2 11.9 359 20.6
2012-05-31 05:46:42 51°24.382 2°53.991 0.1 11.8 1 19.9
2012-05-31 05:46:47 51°24.398 2°53.991 1.1 11.9 -999 17.3
2012-05-31 05:46:52 51°24.415 2°53.993 1.7 11.9 3 18.5
2012-05-31 05:46:57 51°24.431 2°53.991 0.4 11.8 358 18.9
2012-05-31 05:47:02 51°24.447 2°53.993 1.6 11.8 3 19.4
2012-05-31 05:47:07 51°24.464 2°53.993 0.4 11.8 -999 19.4
2012-05-31 05:47:12 51°24.48 2°53.994 1.8 11.7 1 19.3
2012-05-31 05:47:17 51°24.496 2°53.992 358.8 11.7 1 19.3
2012-05-31 05:47:22 51°24.512 2°53.992 0.8 11.8 357 18
2012-05-31 05:47:27 51°24.528 2°53.992 357.9 11.7 359 17.4
2012-05-31 05:47:32 51°24.545 2°53.991 359.4 11.5 358 17.6
2012-05-31 05:47:37 51°24.561 2°53.991 358.2 11.7 359 18.2
2012-05-31 05:47:42 51°24.577 2°53.989 357.4 11.7 358 18.6
2012-05-31 05:47:47 51°24.593 2°53.989 359.1 11.6 359 18.2
2012-05-31 05:47:52 51°24.609 2°53.989 359.4 11.6 359 18.5
2012-05-31 05:47:57 51°24.625 2°53.989 359.4 11.6 -999 18.8
2012-05-31 05:48:02 51°24.642 2°53.989 0.6 11.8 -999 18.6
2012-05-31 05:48:07 51°24.658 2°53.988 359.2 11.7 358 18.5
2012-05-31 05:48:12 51°24.674 2°53.987 358.8 11.7 359 18
2012-05-31 05:48:17 51°24.69 2°53.987 358.8 11.7 359 18.8
2012-05-31 05:48:22 51°24.706 2°53.985 356.8 11.5 355 19.1
2012-05-31 05:48:27 51°24.723 2°53.985 358.3 11.9 1 18.8
2012-05-31 05:48:32 51°24.739 2°53.984 358.2 11.7 357 19.1
2012-05-31 05:48:37 51°24.755 2°53.984 358.9 11.6 359 17.3
2012-05-31 05:48:42 51°24.771 2°53.983 0.1 11.7 358 17.7
2012-05-31 05:48:47 51°24.787 2°53.982 359.3 11.6 358 18.4
2012-05-31 05:48:52 51°24.804 2°53.983 359.7 11.7 1 19.3
2012-05-31 05:48:57 51°24.82 2°53.982 0.7 11.7 -999 19.9
2012-05-31 05:49:02 51°24.836 2°53.983 1.7 11.6 -999 20.2
2012-05-31 05:49:07 51°24.852 2°53.981 358.6 11.5 355 20.5
2012-05-31 05:49:12 51°24.868 2°53.982 1.8 11.6 3 21.2
2012-05-31 05:49:17 51°24.884 2°53.98 358.2 11.5 355 21
2012-05-31 05:49:22 51°24.9 2°53.981 359.4 11.7 2 21.2
2012-05-31 05:49:27 51°24.916 2°53.978 -999 11.6 354 21
2012-05-31 05:49:32 51°24.933 2°53.98 1.4 11.7 4 22
2012-05-31 05:49:37 51°24.948 2°53.976 359.1 11.7 353 21.6
2012-05-31 05:49:42 51°24.965 2°53.978 359.3 11.6 1 20.8
2012-05-31 05:49:47 51°24.981 2°53.976 359 11.6 356 21.4
2012-05-31 05:49:52 51°24.997 2°53.976 358.9 11.7 -999 21.7
2012-05-31 05:49:57 51°25.013 2°53.974 0.1 11.8 357 21.9
2012-05-31 05:50:02 51°25.03 2°53.977 2.1 11.8 2 22.3
2012-05-31 05:50:07 51°25.046 2°53.974 358.2 11.6 354 20.6
2012-05-31 05:50:12 51°25.062 2°53.976 1 11.8 4 21.4
2012-05-31 05:50:17 51°25.077 2°53.972 357.9 11.4 352 21.5
2012-05-31 05:50:22 51°25.094 2°53.973 358.2 11.7 1 21.8
2012-05-31 05:50:27 51°25.11 2°53.97 358.6 11.7 355 22.1
2012-05-31 05:50:32 51°25.126 2°53.971 0.3 11.7 -999 21.8
2012-05-31 05:50:37 51°25.142 2°53.971 0.2 11.6 359 22.2
2012-05-31 05:50:42 51°25.158 2°53.969 358.4 11.5 356 22.4
2012-05-31 05:50:47 51°25.174 2°53.968 359 11.6 359 22.7
2012-05-31 05:50:52 51°25.19 2°53.967 358.9 11.6 357 22.7
2012-05-31 05:50:57 51°25.206 2°53.968 0.5 11.7 2 23.1
2012-05-31 05:51:02 51°25.223 2°53.965 358 11.6 354 22.8
2012-05-31 05:51:07 51°25.239 2°53.966 359.4 11.8 2 22.3
2012-05-31 05:51:12 51°25.255 2°53.964 359.4 11.7 356 21.3
2012-05-31 05:51:17 51°25.271 2°53.965 0.5 11.8 2 21
2012-05-31 05:51:22 51°25.288 2°53.963 0.1 11.7 357 20
2012-05-31 05:51:27 51°25.304 2°53.965 2 11.8 4 20.2
2012-05-31 05:51:31 51°25.317 2°53.964 1.6 11.6 359 20.7
2012-05-31 05:51:37 51°25.336 2°53.964 359.5 11.5 -999 20.8
2012-05-31 05:51:42 51°25.352 2°53.967 2.3 11.6 4 21.3
2012-05-31 05:51:47 51°25.368 2°53.965 0.1 11.5 356 20.7
2012-05-31 05:51:52 51°25.384 2°53.967 2.6 11.8 4 21
2012-05-31 05:51:57 51°25.4 2°53.964 359.7 11.7 355 21
2012-05-31 05:52:02 51°25.416 2°53.966 0.3 11.6 3 21.1
2012-05-31 05:52:07 51°25.432 2°53.966 1.6 11.6 1 20.4
2012-05-31 05:52:12 51°25.448 2°53.964 0.9 11.5 357 20.3
2012-05-31 05:52:17 51°25.464 2°53.965 358.8 11.6 2 20.7
2012-05-31 05:52:22 51°25.48 2°53.963 357.5 11.6 357 20.8
2012-05-31 05:52:27 51°25.496 2°53.96 357.2 11.6 354 20.7
2012-05-31 05:52:32 51°25.512 2°53.96 357.5 11.6 358 20.9
2012-05-31 05:52:37 51°25.528 2°53.958 355.1 11.5 355 21.5
2012-05-31 05:52:42 51°25.544 2°53.955 354.7 11.5 354 21.7
2012-05-31 05:52:47 51°25.56 2°53.953 356.7 11.6 355 21.9
2012-05-31 05:52:52 51°25.576 2°53.949 354.4 11.5 353 22.3
2012-05-31 05:52:57 51°25.592 2°53.946 353.7 11.6 353 22.6
2012-05-31 05:53:02 51°25.608 2°53.943 354.8 11.6 354 22.5
2012-05-31 05:53:07 51°25.624 2°53.94 355.1 11.6 353 22.7
2012-05-31 05:53:12 51°25.64 2°53.938 354.3 11.7 355 23.3
2012-05-31 05:53:17 51°25.656 2°53.934 354.9 11.8 351 23.4
2012-05-31 05:53:22 51°25.673 2°53.932 356 11.7 356 23.4
2012-05-31 05:53:27 51°25.688 2°53.928 353.6 11.5 351 24
2012-05-31 05:53:31 51°25.701 2°53.926 354.3 11.7 354 24.2
2012-05-31 05:53:37 51°25.72 2°53.922 354.2 11.7 352 24.1
2012-05-31 05:53:42 51°25.737 2°53.92 355.8 11.7 353 24.2
2012-05-31 05:53:47 51°25.753 2°53.917 355.2 11.7 355 24.5
2012-05-31 05:53:51 51°25.766 2°53.916 355.9 11.7 357 25.2
2012-05-31 05:53:57 51°25.785 2°53.911 356.1 11.6 351 25.3
2012-05-31 05:54:02 51°25.801 2°53.91 354.9 11.8 359 25.6
2012-05-31 05:54:07 51°25.817 2°53.907 356.1 11.8 352 25.3
2012-05-31 05:54:12 51°25.834 2°53.905 355.6 11.8 356 24.8
2012-05-31 05:54:17 51°25.85 2°53.901 355.5 11.6 353 24.3
2012-05-31 05:54:22 51°25.866 2°53.901 357.7 11.8 355 25.4
2012-05-31 05:54:27 51°25.882 2°53.898 353.6 11.6 353 25.4
2012-05-31 05:54:32 51°25.898 2°53.894 355.8 11.7 353 25.5
2012-05-31 05:54:37 51°25.914 2°53.889 352.9 11.7 350 25.9
2012-05-31 05:54:42 51°25.93 2°53.886 352.7 11.8 353 26.4
2012-05-31 05:54:47 51°25.946 2°53.882 352.1 11.7 351 26.6
2012-05-31 05:54:52 51°25.962 2°53.878 353.7 11.7 353 26.5
2012-05-31 05:54:57 51°25.978 2°53.876 353.2 11.8 354 27.3
2012-05-31 05:55:02 51°25.994 2°53.872 354.3 11.7 351 27.8
2012-05-31 05:55:07 51°26.011 2°53.87 355.9 11.8 356 28.2
2012-05-31 05:55:12 51°26.027 2°53.867 355 11.8 352 28.7
2012-05-31 05:55:17 51°26.043 2°53.864 353.3 11.8 353 29.5
2012-05-31 05:55:22 51°26.06 2°53.86 355.1 11.8 352 29.6
2012-05-31 05:55:27 51°26.076 2°53.856 352.9 11.8 352 30
2012-05-31 05:55:32 51°26.092 2°53.853 353.7 11.9 353 30.3
2012-05-31 05:55:37 51°26.109 2°53.85 354.7 11.8 355 31.1
2012-05-31 05:55:42 51°26.125 2°53.847 355.5 11.9 354 31.4
2012-05-31 05:55:47 51°26.141 2°53.844 356.5 11.9 354 30.7
2012-05-31 05:55:51 51°26.154 2°53.842 355.7 11.8 353 30.6
2012-05-31 05:55:57 51°26.174 2°53.84 357 11.9 355 31.1
2012-05-31 05:56:02 51°26.191 2°53.836 355.8 11.9 353 31.5
2012-05-31 05:56:07 51°26.207 2°53.835 356.1 12 356 31.7
2012-05-31 05:56:12 51°26.223 2°53.831 356.8 12 351 31.5
2012-05-31 05:56:17 51°26.24 2°53.829 355.2 12 354 32.5
2012-05-31 05:56:22 51°26.256 2°53.825 353.8 12 354 33.1
2012-05-31 05:56:27 51°26.272 2°53.821 354.4 12 350 32.7
2012-05-31 05:56:32 51°26.289 2°53.817 354.2 12 353 32.7
2012-05-31 05:56:37 51°26.306 2°53.814 354.2 12.1 352 33.1
2012-05-31 05:56:42 51°26.322 2°53.81 354.4 12 353 32.9
2012-05-31 05:56:47 51°26.339 2°53.807 355.2 12 354 33.7
2012-05-31 05:56:52 51°26.355 2°53.804 354.6 12 352 33.7
2012-05-31 05:56:57 51°26.372 2°53.802 356.4 12.1 355 33.8
2012-05-31 05:57:02 51°26.388 2°53.796 353.4 11.9 348 33.2
2012-05-31 05:57:07 51°26.405 2°53.795 354.1 11.9 357 33.8
2012-05-31 05:57:12 51°26.421 2°53.789 354.5 11.9 350 34.2
2012-05-31 05:57:17 51°26.438 2°53.786 353.9 12 353 33.4
2012-05-31 05:57:22 51°26.454 2°53.781 353.9 12.1 348 32.8
2012-05-31 05:57:27 51°26.471 2°53.778 353.3 12 353 33.3
2012-05-31 05:57:32 51°26.487 2°53.772 351.6 12 347 33.2
2012-05-31 05:57:37 51°26.503 2°53.767 352.5 12.2 350 33.4
2012-05-31 05:57:42 51°26.52 2°53.762 351.4 12 348 33.4
2012-05-31 05:57:47 51°26.536 2°53.757 352.1 12.1 349 33.2
2012-05-31 05:57:52 51°26.553 2°53.752 351.8 12.1 349 33.4
2012-05-31 05:57:57 51°26.569 2°53.748 351.2 12.1 351 33.5
2012-05-31 05:58:02 51°26.585 2°53.742 352 12 347 33.3
2012-05-31 05:58:07 51°26.602 2°53.737 350.9 12.1 349 32.6
2012-05-31 05:58:12 51°26.619 2°53.733 352.8 12.1 351 32.9
2012-05-31 05:58:17 51°26.634 2°53.728 350.8 12 348 33.2
2012-05-31 05:58:22 51°26.651 2°53.722 349.7 12.1 349 33
2012-05-31 05:58:27 51°26.667 2°53.716 351 12.2 348 33
2012-05-31 05:58:32 51°26.684 2°53.711 349.8 12 347 32.5
2012-05-31 05:58:37 51°26.7 2°53.705 350.5 12.1 349 32.1
2012-05-31 05:58:42 51°26.717 2°53.698 349.2 12.1 344 31.8
2012-05-31 05:58:47 51°26.733 2°53.694 350.6 12.1 351 32
2012-05-31 05:58:52 51°26.749 2°53.687 350.4 12.1 345 31.6
2012-05-31 05:58:57 51°26.765 2°53.681 349.4 12 347 31.3
2012-05-31 05:59:02 51°26.782 2°53.675 349.2 12.1 349 30.7
2012-05-31 05:59:07 51°26.798 2°53.669 351.5 12.1 348 29.6
2012-05-31 05:59:12 51°26.814 2°53.665 350.9 12.1 349 28.8
2012-05-31 05:59:17 51°26.831 2°53.659 350.6 12 347 27.9
2012-05-31 05:59:22 51°26.847 2°53.655 351.4 12 351 27.6
2012-05-31 05:59:27 51°26.863 2°53.65 352.4 11.9 350 27.4
2012-05-31 05:59:32 51°26.88 2°53.646 351.9 12 350 26.5
2012-05-31 05:59:37 51°26.896 2°53.642 353.3 11.9 352 26.4
2012-05-31 05:59:42 51°26.912 2°53.636 351.6 11.8 348 27.8
2012-05-31 05:59:47 51°26.928 2°53.632 352 11.9 350 27.3
2012-05-31 05:59:52 51°26.944 2°53.627 351.5 11.9 348 27.4
2012-05-31 05:59:57 51°26.961 2°53.622 350.7 11.9 351 28.2
2012-05-31 06:00:02 51°26.977 2°53.619 351 11.9 353 28.2
2012-05-31 06:00:07 51°26.993 2°53.612 351.4 11.7 347 27.8
2012-05-31 06:00:12 51°27.009 2°53.607 349.7 11.9 348 28.1
2012-05-31 06:00:17 51°27.025 2°53.601 349.2 11.9 345 27.8
2012-05-31 06:00:22 51°27.041 2°53.596 349.2 12 350 28.2
2012-05-31 06:00:27 51°27.057 2°53.59 349 11.9 348 27.6
2012-05-31 06:00:32 51°27.074 2°53.586 350.3 12 349 27.6
2012-05-31 06:00:37 51°27.09 2°53.58 351.4 11.9 348 26.9
2012-05-31 06:00:42 51°27.106 2°53.576 350.7 11.9 349 26.8
2012-05-31 06:00:47 51°27.122 2°53.571 351.4 12 351 26.4